createdAt,value
2023-04-07T00:04:17.571Z,6.3
2023-04-07T00:14:17.376Z,6.3
2023-04-07T00:24:31.026Z,6.2
2023-04-07T00:34:17.353Z,5.9
2023-04-07T00:44:17.326Z,5.6
2023-04-07T00:54:17.290Z,5.5
2023-04-07T01:04:17.414Z,5.4
2023-04-07T01:14:17.291Z,5.3
2023-04-07T01:24:17.264Z,5.3
2023-04-07T01:34:17.260Z,5.2
2023-04-07T01:44:17.251Z,5.2
2023-04-07T01:54:17.250Z,5.1
2023-04-07T02:04:17.204Z,5
2023-04-07T02:14:17.197Z,4.7
2023-04-07T02:24:17.195Z,4.8
2023-04-07T02:34:17.205Z,4.5
2023-04-07T02:44:17.149Z,4.5
2023-04-07T02:54:17.178Z,4.4
2023-04-07T03:04:17.191Z,4.2
2023-04-07T03:14:17.097Z,3.9
2023-04-07T03:24:17.098Z,3.8
2023-04-07T03:34:17.100Z,3.8
2023-04-07T03:44:17.080Z,3.6
2023-04-07T03:54:17.069Z,3.5
2023-04-07T04:04:17.446Z,3.4
2023-04-07T04:14:17.056Z,3.5
2023-04-07T04:24:17.067Z,3.6
2023-04-07T04:34:17.034Z,3.7
2023-04-07T04:44:16.991Z,3.8
2023-04-07T04:54:17.020Z,4
2023-04-07T05:04:17.298Z,4.4
2023-04-07T05:14:16.968Z,4.4
2023-04-07T05:24:16.957Z,4.4
2023-04-07T05:34:16.984Z,4.6
2023-04-07T05:44:16.962Z,4.7
2023-04-07T05:54:16.915Z,5
2023-04-07T06:04:16.959Z,5.4
2023-04-07T06:14:16.901Z,6
2023-04-07T06:24:17.168Z,6.2
2023-04-07T06:34:16.860Z,5.4
2023-04-07T06:44:16.859Z,5.5
2023-04-07T06:54:16.869Z,5.8
2023-04-07T07:04:16.967Z,6.6
2023-04-07T07:14:16.827Z,7.1
2023-04-07T07:24:16.797Z,7.2
2023-04-07T07:34:16.830Z,7.6
2023-04-07T07:44:16.778Z,8
2023-04-07T07:54:16.756Z,8.1
2023-04-07T08:04:16.847Z,7.6
2023-04-07T08:14:21.776Z,7.1
2023-04-07T08:24:16.716Z,7.3
2023-04-07T08:34:16.694Z,7.4
2023-04-07T08:44:16.694Z,7.5
2023-04-07T08:54:16.661Z,7.8
2023-04-07T09:04:16.712Z,8.3
2023-04-07T09:14:16.630Z,8.6
2023-04-07T09:24:16.635Z,8.6
2023-04-07T09:34:16.612Z,8.4
2023-04-07T09:44:16.614Z,8.3
2023-04-07T09:54:16.585Z,8.4
2023-04-07T10:04:16.615Z,8.6
2023-04-07T10:14:16.558Z,8.7
2023-04-07T10:24:16.543Z,10.2
2023-04-07T10:34:16.535Z,12.7
2023-04-07T10:44:16.509Z,14.2
2023-04-07T10:54:16.472Z,15.5
2023-04-07T11:04:16.629Z,15.9
2023-04-07T11:14:16.467Z,16.8
2023-04-07T11:24:16.653Z,17.9
2023-04-07T11:34:16.393Z,18.1
2023-04-07T11:44:16.398Z,18.6
2023-04-07T11:54:16.354Z,18.8
2023-04-07T12:04:16.577Z,19.9
2023-04-07T12:14:16.324Z,21.2
2023-04-07T12:24:16.287Z,20.8
2023-04-07T12:34:16.278Z,20.5
2023-04-07T12:44:16.304Z,21.8
2023-04-07T12:54:16.259Z,22.7
2023-04-07T13:04:16.316Z,22.9
2023-04-07T13:14:16.173Z,21.7
2023-04-07T13:24:16.175Z,19.8
2023-04-07T13:34:16.185Z,16.3
2023-04-07T13:44:16.150Z,13
2023-04-07T13:54:16.122Z,11.2
2023-04-07T14:04:16.152Z,10.7
2023-04-07T14:14:16.065Z,11.6
2023-04-07T14:24:16.120Z,12.8
2023-04-07T14:34:16.059Z,14.8
2023-04-07T14:44:16.009Z,16.3
2023-04-07T14:54:16.053Z,15.4
2023-04-07T15:04:16.129Z,15.7
2023-04-07T15:14:15.978Z,17
2023-04-07T15:24:16.443Z,17.7
2023-04-07T15:34:15.943Z,16.8
2023-04-07T15:44:15.946Z,15.9
2023-04-07T15:54:15.892Z,15.3
2023-04-07T16:04:16.033Z,16.4
2023-04-07T16:14:15.864Z,17.6
2023-04-07T16:24:15.815Z,17.1
2023-04-07T16:34:15.820Z,16
2023-04-07T16:44:15.788Z,15
2023-04-07T16:54:15.784Z,14.7
2023-04-07T17:04:15.873Z,15
2023-04-07T17:14:15.719Z,15.3
2023-04-07T17:24:15.713Z,15.5
2023-04-07T17:34:15.679Z,15
2023-04-07T17:44:15.683Z,14
2023-04-07T17:54:15.652Z,12.9
2023-04-07T18:04:15.709Z,12
2023-04-07T18:14:15.657Z,11.3
2023-04-07T18:24:15.609Z,10.6
2023-04-07T18:34:15.578Z,10
2023-04-07T18:44:15.595Z,9.4
2023-04-07T18:54:15.579Z,8.9
2023-04-07T19:04:15.575Z,8.7
2023-04-07T19:14:15.521Z,8.5
2023-04-07T19:24:15.496Z,8.2
2023-04-07T19:34:15.520Z,8
2023-04-07T19:44:15.475Z,7.7
2023-04-07T19:54:15.471Z,7.8
2023-04-07T20:04:15.491Z,7.7
2023-04-07T20:14:15.459Z,7.7
2023-04-07T20:24:15.429Z,7.6
2023-04-07T20:34:15.415Z,7.4
2023-04-07T20:44:15.390Z,7.3
2023-04-07T20:54:15.394Z,7
2023-04-07T21:04:15.421Z,6.9
2023-04-07T21:14:15.334Z,6.7
2023-04-07T21:24:15.315Z,6.4
2023-04-07T21:34:15.360Z,6.3
2023-04-07T21:44:15.314Z,6
2023-04-07T21:54:15.322Z,5.8
2023-04-07T22:04:15.376Z,5.9
2023-04-07T22:14:15.291Z,5.6
2023-04-07T22:24:15.268Z,5.6
2023-04-07T22:34:15.237Z,5.9
2023-04-07T22:44:15.376Z,5.6
2023-04-07T22:54:15.200Z,5.2
2023-04-07T23:04:15.231Z,4.9
2023-04-07T23:14:15.189Z,4.8
2023-04-07T23:24:15.157Z,4.8
2023-04-07T23:34:15.143Z,4.6
2023-04-07T23:44:15.145Z,4.7
2023-04-07T23:54:15.149Z,4.8
